createdAt,value
2017-12-17T00:01:54.240Z,74.70
2017-12-17T00:04:21.710Z,74.80
2017-12-17T00:06:49.900Z,75.30
2017-12-17T00:09:17.352Z,74.50
2017-12-17T00:11:44.780Z,74.60
2017-12-17T00:14:12.266Z,74.20
2017-12-17T00:16:39.886Z,73.10
2017-12-17T00:19:07.301Z,73.70
2017-12-17T00:21:34.748Z,72.80
2017-12-17T00:24:02.734Z,73.00
2017-12-17T00:26:30.282Z,73.50
2017-12-17T00:28:57.745Z,73.70
2017-12-17T00:31:25.176Z,72.80
2017-12-17T00:33:52.612Z,72.40
2017-12-17T00:36:20.194Z,72.30
2017-12-17T00:38:47.723Z,72.20
2017-12-17T00:41:15.165Z,73.70
2017-12-17T00:43:42.595Z,73.00
2017-12-17T00:46:10.144Z,73.00
2017-12-17T00:48:37.585Z,73.60
2017-12-17T00:51:05.027Z,73.00
2017-12-17T00:53:32.481Z,73.20
2017-12-17T00:56:00.040Z,72.90
2017-12-17T00:58:28.243Z,73.40
2017-12-17T01:00:55.696Z,73.50
2017-12-17T01:03:23.128Z,73.60
2017-12-17T01:05:50.564Z,73.30
2017-12-17T01:08:18.072Z,73.60
2017-12-17T01:10:46.272Z,74.20
2017-12-17T01:13:13.768Z,74.20
2017-12-17T01:15:41.209Z,73.80
2017-12-17T01:18:08.644Z,74.10
2017-12-17T01:20:36.075Z,74.30
2017-12-17T01:23:03.522Z,73.70
2017-12-17T01:25:30.960Z,73.80
2017-12-17T01:27:58.399Z,73.60
2017-12-17T01:30:25.864Z,73.90
2017-12-17T01:32:53.316Z,73.30
2017-12-17T01:35:21.517Z,72.90
2017-12-17T01:37:48.987Z,72.90
2017-12-17T01:40:16.451Z,73.50
2017-12-17T01:42:43.896Z,73.70
2017-12-17T01:45:11.337Z,73.60
2017-12-17T01:47:38.781Z,73.30
2017-12-17T01:50:06.227Z,72.90
2017-12-17T01:52:33.653Z,73.60
2017-12-17T01:55:01.094Z,73.90
2017-12-17T01:57:28.528Z,74.00
2017-12-17T01:59:56.000Z,73.90
2017-12-17T02:02:24.205Z,73.60
2017-12-17T02:04:51.653Z,73.60
2017-12-17T02:07:19.086Z,73.30
2017-12-17T02:09:46.528Z,73.90
2017-12-17T02:12:13.961Z,74.40
2017-12-17T02:14:41.403Z,74.80
2017-12-17T02:17:08.833Z,74.50
2017-12-17T02:19:37.049Z,75.20
2017-12-17T02:22:04.490Z,75.30
2017-12-17T02:24:31.921Z,75.40
2017-12-17T02:26:59.365Z,75.30
2017-12-17T02:29:26.849Z,75.00
2017-12-17T02:31:54.245Z,75.40
2017-12-17T02:34:21.681Z,74.70
2017-12-17T02:36:49.212Z,74.00
2017-12-17T02:39:16.645Z,74.50
2017-12-17T02:41:44.088Z,74.50
2017-12-17T02:44:11.521Z,74.10
2017-12-17T02:46:38.965Z,74.30
2017-12-17T02:49:06.404Z,75.20
2017-12-17T02:51:34.608Z,75.00
2017-12-17T02:54:02.049Z,75.10
2017-12-17T02:56:30.261Z,74.80
2017-12-17T02:58:58.472Z,74.70
2017-12-17T03:01:25.938Z,74.70
2017-12-17T03:03:53.368Z,74.50
2017-12-17T03:06:20.839Z,74.60
2017-12-17T03:08:48.276Z,74.40
2017-12-17T03:11:15.720Z,74.60
2017-12-17T03:13:43.252Z,74.20
2017-12-17T03:16:10.698Z,74.50
2017-12-17T03:18:38.233Z,74.50
2017-12-17T03:21:05.689Z,75.60
2017-12-17T03:23:33.120Z,75.20
2017-12-17T03:26:00.561Z,75.30
2017-12-17T03:28:28.040Z,74.40
2017-12-17T03:30:56.242Z,75.80
2017-12-17T03:33:24.696Z,75.80
2017-12-17T03:35:52.137Z,75.00
2017-12-17T03:38:19.580Z,75.00
2017-12-17T03:40:47.070Z,75.30
2017-12-17T03:43:14.520Z,75.20
2017-12-17T03:45:41.956Z,75.30
2017-12-17T03:48:10.892Z,75.00
2017-12-17T03:50:38.338Z,74.90
2017-12-17T03:53:05.888Z,75.00
2017-12-17T03:55:33.324Z,74.70
2017-12-17T03:58:00.758Z,74.90
2017-12-17T04:00:28.196Z,74.80
2017-12-17T04:02:55.624Z,75.00
2017-12-17T04:05:23.075Z,74.90
2017-12-17T04:07:50.528Z,75.70
2017-12-17T04:10:17.960Z,75.50
2017-12-17T04:12:45.394Z,74.90
2017-12-17T04:15:12.832Z,74.90
2017-12-17T04:17:40.340Z,75.40
2017-12-17T04:20:07.885Z,75.10
2017-12-17T04:22:35.319Z,74.80
2017-12-17T04:25:02.761Z,74.50
2017-12-17T04:27:30.200Z,74.60
2017-12-17T04:29:57.648Z,74.30
2017-12-17T04:32:25.097Z,73.60
2017-12-17T04:34:52.557Z,73.80
2017-12-17T04:37:20.090Z,73.50
2017-12-17T04:39:47.603Z,73.40
2017-12-17T04:42:15.040Z,73.50
2017-12-17T04:44:42.480Z,73.10
2017-12-17T04:47:09.924Z,73.80
2017-12-17T04:49:37.371Z,73.00
2017-12-17T04:52:04.848Z,73.00
2017-12-17T04:54:32.405Z,72.80
2017-12-17T04:56:59.946Z,73.00
2017-12-17T04:59:27.506Z,73.10
2017-12-17T05:01:55.032Z,73.50
2017-12-17T05:04:22.491Z,73.90
2017-12-17T05:06:50.699Z,74.10
2017-12-17T05:09:18.142Z,74.10
2017-12-17T05:11:45.586Z,73.70
2017-12-17T05:14:13.026Z,73.70
2017-12-17T05:16:40.520Z,73.70
2017-12-17T05:19:08.719Z,73.90
2017-12-17T05:21:36.152Z,73.80
2017-12-17T05:24:03.593Z,73.80
2017-12-17T05:26:31.021Z,73.90
2017-12-17T05:28:59.247Z,74.00
2017-12-17T05:31:26.680Z,74.00
2017-12-17T05:33:54.120Z,73.80
2017-12-17T05:36:21.550Z,73.90
2017-12-17T05:38:49.004Z,74.10
2017-12-17T05:41:16.439Z,74.50
2017-12-17T05:43:43.885Z,74.40
2017-12-17T05:46:11.316Z,74.20
2017-12-17T05:48:39.754Z,74.40
2017-12-17T05:51:07.184Z,73.90
2017-12-17T05:53:34.628Z,74.20
2017-12-17T05:56:02.832Z,74.00
2017-12-17T05:58:30.405Z,74.00
2017-12-17T06:00:57.840Z,73.80
2017-12-17T06:03:25.277Z,74.00
2017-12-17T06:05:52.831Z,73.60
2017-12-17T06:08:20.266Z,73.60
2017-12-17T06:10:47.714Z,72.70
2017-12-17T06:13:15.146Z,73.00
2017-12-17T06:15:42.591Z,72.90
2017-12-17T06:18:10.044Z,72.90
2017-12-17T06:20:37.488Z,72.80
2017-12-17T06:23:04.976Z,72.90
2017-12-17T06:25:32.412Z,72.50
2017-12-17T06:27:59.844Z,72.50
2017-12-17T06:30:28.049Z,72.50
2017-12-17T06:32:55.520Z,72.50
2017-12-17T06:35:22.969Z,73.10
2017-12-17T06:37:50.505Z,72.80
2017-12-17T06:40:18.767Z,72.60
2017-12-17T06:42:46.208Z,72.70
2017-12-17T06:45:13.660Z,72.60
2017-12-17T06:47:41.100Z,72.70
2017-12-17T06:50:08.536Z,72.80
2017-12-17T06:52:35.973Z,72.50
2017-12-17T06:55:03.421Z,72.50
2017-12-17T06:57:30.885Z,73.20
2017-12-17T06:59:58.314Z,72.80
2017-12-17T07:02:25.771Z,72.90
2017-12-17T07:04:53.981Z,73.00
2017-12-17T07:07:21.424Z,72.90
2017-12-17T07:09:48.858Z,72.70
2017-12-17T07:12:16.298Z,72.70
2017-12-17T07:14:43.734Z,72.40
2017-12-17T07:17:11.196Z,71.80
2017-12-17T07:19:38.632Z,71.80
2017-12-17T07:22:06.069Z,72.00
2017-12-17T07:24:33.522Z,72.80
2017-12-17T07:27:01.098Z,72.70
2017-12-17T07:29:28.552Z,72.70
2017-12-17T07:31:55.980Z,72.70
2017-12-17T07:34:23.426Z,73.00
2017-12-17T07:36:50.864Z,73.70
2017-12-17T07:39:18.317Z,72.90
2017-12-17T07:41:45.747Z,73.00
2017-12-17T07:44:13.229Z,72.70
2017-12-17T07:46:41.430Z,72.60
2017-12-17T07:49:08.872Z,72.60
2017-12-17T07:51:36.344Z,72.60
2017-12-17T07:54:03.772Z,71.80
2017-12-17T07:56:31.340Z,71.80
2017-12-17T07:58:58.773Z,71.10
2017-12-17T08:01:26.319Z,71.30
2017-12-17T08:03:53.759Z,70.30
2017-12-17T08:06:21.216Z,70.20
2017-12-17T08:08:48.672Z,70.50
2017-12-17T08:11:16.874Z,69.70
2017-12-17T08:13:44.300Z,69.70
2017-12-17T08:16:11.740Z,69.60
2017-12-17T08:18:39.234Z,69.80
2017-12-17T08:21:06.682Z,70.00
2017-12-17T08:23:34.224Z,70.10
2017-12-17T08:26:01.672Z,69.80
2017-12-17T08:28:29.115Z,69.90
2017-12-17T08:30:56.597Z,70.10
2017-12-17T08:33:24.789Z,70.40
2017-12-17T08:35:52.226Z,70.50
2017-12-17T08:38:19.701Z,70.90
2017-12-17T08:40:47.168Z,70.80
2017-12-17T08:43:15.361Z,69.80
2017-12-17T08:45:42.795Z,69.80
2017-12-17T08:48:10.272Z,69.90
2017-12-17T08:50:37.708Z,69.70
2017-12-17T08:53:05.184Z,70.00
2017-12-17T08:55:32.597Z,69.50
2017-12-17T08:58:00.042Z,69.40
2017-12-17T09:00:27.468Z,69.60
2017-12-17T09:02:54.955Z,69.30
2017-12-17T09:05:22.412Z,69.40
2017-12-17T09:07:50.630Z,69.00
2017-12-17T09:10:18.072Z,69.00
2017-12-17T09:12:45.607Z,68.50
2017-12-17T09:15:13.152Z,68.60
2017-12-17T09:17:40.573Z,67.70
2017-12-17T09:20:08.005Z,66.90
2017-12-17T09:22:35.504Z,67.60
2017-12-17T09:25:03.058Z,66.90
2017-12-17T09:27:31.298Z,66.70
2017-12-17T09:29:58.743Z,66.70
2017-12-17T09:32:26.204Z,66.10
2017-12-17T09:34:53.736Z,66.50
2017-12-17T09:37:21.942Z,66.40
2017-12-17T09:39:50.199Z,67.30
2017-12-17T09:42:17.600Z,67.30
2017-12-17T09:44:45.032Z,67.40
2017-12-17T09:47:12.483Z,67.30
2017-12-17T09:49:39.928Z,67.70
2017-12-17T09:52:07.367Z,67.40
2017-12-17T09:54:34.928Z,67.50
2017-12-17T09:57:02.364Z,67.90
2017-12-17T09:59:29.803Z,67.60
2017-12-17T10:01:57.350Z,67.10
2017-12-17T10:04:24.796Z,66.90
2017-12-17T10:06:52.261Z,67.10
2017-12-17T10:09:20.464Z,66.60
2017-12-17T10:11:48.040Z,66.60
2017-12-17T10:14:15.478Z,66.60
2017-12-17T10:16:42.920Z,66.40
2017-12-17T10:19:10.352Z,66.00
2017-12-17T10:21:37.809Z,65.80
2017-12-17T10:24:05.321Z,65.10
2017-12-17T10:26:32.744Z,64.10
2017-12-17T10:29:00.180Z,64.90
2017-12-17T10:31:27.621Z,65.00
2017-12-17T10:33:55.148Z,64.00
2017-12-17T10:36:22.538Z,63.70
2017-12-17T10:38:50.017Z,62.70
2017-12-17T10:41:17.548Z,61.90
2017-12-17T10:43:44.988Z,62.80
2017-12-17T10:46:13.326Z,62.60
2017-12-17T10:48:40.843Z,62.60
2017-12-17T10:51:09.020Z,62.00
2017-12-17T10:53:36.447Z,62.00
2017-12-17T10:56:05.870Z,61.50
2017-12-17T10:58:33.336Z,61.80
2017-12-17T11:01:00.776Z,62.30
2017-12-17T11:03:28.217Z,63.80
2017-12-17T11:05:55.677Z,63.50
2017-12-17T11:08:23.212Z,63.70
2017-12-17T11:10:50.661Z,63.80
2017-12-17T11:13:18.106Z,65.00
2017-12-17T11:15:45.584Z,64.10
2017-12-17T11:18:13.018Z,64.10
2017-12-17T11:20:41.224Z,64.10
2017-12-17T11:23:08.685Z,64.10
2017-12-17T11:25:36.113Z,65.00
2017-12-17T11:28:03.557Z,63.90
2017-12-17T11:30:31.023Z,63.90
2017-12-17T11:32:58.463Z,63.20
2017-12-17T11:35:25.890Z,62.60
2017-12-17T11:37:53.341Z,63.00
2017-12-17T11:40:20.918Z,63.40
2017-12-17T11:42:49.112Z,63.90
2017-12-17T11:45:16.589Z,63.90
2017-12-17T11:47:44.031Z,63.70
2017-12-17T11:50:11.498Z,64.10
2017-12-17T11:52:38.946Z,64.50
2017-12-17T11:55:07.137Z,64.70
2017-12-17T11:57:34.627Z,64.40
2017-12-17T12:00:02.073Z,64.50
2017-12-17T12:02:29.504Z,63.60
2017-12-17T12:04:56.947Z,64.10
2017-12-17T12:07:24.376Z,63.20
2017-12-17T12:09:51.821Z,63.20
2017-12-17T12:12:19.265Z,63.60
2017-12-17T12:14:46.746Z,63.70
2017-12-17T12:17:14.173Z,64.50
2017-12-17T12:19:41.839Z,64.40
2017-12-17T12:22:10.051Z,64.00
2017-12-17T12:24:37.535Z,63.90
2017-12-17T12:27:05.739Z,64.80
2017-12-17T12:29:33.281Z,64.10
2017-12-17T12:32:00.710Z,64.10
2017-12-17T12:34:28.144Z,63.40
2017-12-17T12:36:56.356Z,62.80
2017-12-17T12:39:24.415Z,62.80
2017-12-17T12:41:51.864Z,62.50
2017-12-17T12:44:19.317Z,62.50
2017-12-17T12:46:46.755Z,63.30
2017-12-17T12:49:15.242Z,63.80
2017-12-17T12:51:42.660Z,63.60
2017-12-17T12:54:10.131Z,64.50
2017-12-17T12:56:38.473Z,64.00
2017-12-17T12:59:05.904Z,63.90
2017-12-17T13:01:33.361Z,64.10
2017-12-17T13:04:00.835Z,64.30
2017-12-17T13:06:29.055Z,64.80
2017-12-17T13:08:56.496Z,64.80
2017-12-17T13:11:23.969Z,63.60
2017-12-17T13:13:51.451Z,63.90
2017-12-17T13:16:18.878Z,64.00
2017-12-17T13:18:46.323Z,63.40
2017-12-17T13:21:13.795Z,64.00
2017-12-17T13:23:41.227Z,63.80
2017-12-17T13:26:08.648Z,63.90
2017-12-17T13:28:36.085Z,63.30
2017-12-17T13:31:03.600Z,63.70
2017-12-17T13:33:31.027Z,63.50
2017-12-17T13:35:58.453Z,63.00
2017-12-17T13:38:25.899Z,62.80
2017-12-17T13:40:53.408Z,62.30
2017-12-17T13:43:20.849Z,63.00
2017-12-17T13:45:48.318Z,62.70
2017-12-17T13:48:15.827Z,62.80
2017-12-17T13:50:44.015Z,63.00
2017-12-17T13:53:11.481Z,63.00
2017-12-17T13:55:38.919Z,63.00
2017-12-17T13:58:06.341Z,62.70
2017-12-17T14:00:33.785Z,63.40
2017-12-17T14:03:01.398Z,63.50
2017-12-17T14:05:29.595Z,63.20
2017-12-17T14:07:57.030Z,63.20
2017-12-17T14:10:24.506Z,62.90
2017-12-17T14:12:51.921Z,62.10
2017-12-17T14:15:19.369Z,62.40
2017-12-17T14:17:46.799Z,63.00
2017-12-17T14:20:14.264Z,63.00
2017-12-17T14:22:41.695Z,62.60
2017-12-17T14:25:09.130Z,62.70
2017-12-17T14:27:36.570Z,62.40
2017-12-17T14:30:04.042Z,63.20
2017-12-17T14:32:31.639Z,63.00
2017-12-17T14:34:59.902Z,62.60
2017-12-17T14:37:28.226Z,63.70
2017-12-17T14:39:55.771Z,63.60
2017-12-17T14:42:23.205Z,63.80
2017-12-17T14:44:50.671Z,64.40
2017-12-17T14:47:18.106Z,64.70
2017-12-17T14:49:45.702Z,65.40
2017-12-17T14:52:13.227Z,64.80
2017-12-17T14:54:41.455Z,64.60
2017-12-17T14:57:08.934Z,64.60
2017-12-17T14:59:36.316Z,64.60
2017-12-17T15:02:05.273Z,65.30
2017-12-17T15:04:32.730Z,65.20
2017-12-17T15:07:00.196Z,64.40
2017-12-17T15:09:27.647Z,64.80
2017-12-17T15:11:55.091Z,64.40
2017-12-17T15:14:22.522Z,64.30
2017-12-17T15:16:49.965Z,63.80
2017-12-17T15:19:18.157Z,64.10
2017-12-17T15:21:46.442Z,63.80
2017-12-17T15:24:13.868Z,63.80
2017-12-17T15:26:41.308Z,63.90
2017-12-17T15:29:08.854Z,64.10
2017-12-17T15:31:37.125Z,64.10
2017-12-17T15:34:04.589Z,64.20
2017-12-17T15:36:32.012Z,65.00
2017-12-17T15:38:59.569Z,65.30
2017-12-17T15:41:27.081Z,64.80
2017-12-17T15:43:54.536Z,65.80
2017-12-17T15:46:21.985Z,65.00
2017-12-17T15:48:49.519Z,65.30
2017-12-17T15:51:17.759Z,66.00
2017-12-17T15:53:45.184Z,66.10
2017-12-17T15:56:12.612Z,66.30
2017-12-17T15:58:40.052Z,64.50
2017-12-17T16:01:07.487Z,65.30
2017-12-17T16:03:35.033Z,66.20
2017-12-17T16:06:02.611Z,65.80
2017-12-17T16:08:30.086Z,65.30
2017-12-17T16:10:58.359Z,64.70
2017-12-17T16:13:25.877Z,64.70
2017-12-17T16:15:53.429Z,64.70
2017-12-17T16:18:21.671Z,65.30
2017-12-17T16:20:49.134Z,65.20
2017-12-17T16:23:17.381Z,65.40
2017-12-17T16:25:45.672Z,65.60
2017-12-17T16:28:13.889Z,65.40
2017-12-17T16:30:41.322Z,65.40
2017-12-17T16:33:08.755Z,65.20
2017-12-17T16:35:36.242Z,65.00
2017-12-17T16:38:04.441Z,65.90
2017-12-17T16:40:31.937Z,65.90
2017-12-17T16:42:59.425Z,65.50
2017-12-17T16:45:27.761Z,66.30
2017-12-17T16:47:55.250Z,65.60
2017-12-17T16:50:22.828Z,64.50
2017-12-17T16:52:51.096Z,64.50
2017-12-17T16:55:18.598Z,64.00
2017-12-17T16:57:46.076Z,63.90
2017-12-17T17:00:13.545Z,64.40
2017-12-17T17:02:41.780Z,63.40
2017-12-17T17:05:09.206Z,63.40
2017-12-17T17:07:36.730Z,63.10
2017-12-17T17:10:04.188Z,63.50
2017-12-17T17:12:31.626Z,62.50
2017-12-17T17:14:59.134Z,62.80
2017-12-17T17:17:26.610Z,61.50
2017-12-17T17:19:54.137Z,61.00
2017-12-17T17:22:21.620Z,61.20
2017-12-17T17:24:49.102Z,62.20
2017-12-17T17:27:17.381Z,61.50
2017-12-17T17:29:44.868Z,61.50
2017-12-17T17:32:12.323Z,61.00
2017-12-17T17:34:39.797Z,61.50
2017-12-17T17:37:07.267Z,61.50
2017-12-17T17:39:34.748Z,60.70
2017-12-17T17:42:02.240Z,60.60
2017-12-17T17:44:29.718Z,61.20
2017-12-17T17:46:57.500Z,61.60
2017-12-17T17:49:24.930Z,61.90
2017-12-17T17:51:52.524Z,62.10
2017-12-17T17:54:20.751Z,61.40
2017-12-17T17:56:48.228Z,61.40
2017-12-17T17:59:15.723Z,61.20
2017-12-17T18:01:43.198Z,62.00
2017-12-17T18:04:10.662Z,61.50
2017-12-17T18:06:38.097Z,62.50
2017-12-17T18:09:05.664Z,62.00
2017-12-17T18:11:33.143Z,61.70
2017-12-17T18:14:00.614Z,62.30
2017-12-17T18:16:28.912Z,61.80
2017-12-17T18:18:56.381Z,61.80
2017-12-17T18:21:23.846Z,62.60
2017-12-17T18:23:52.074Z,63.00
2017-12-17T18:26:19.524Z,62.20
2017-12-17T18:28:47.105Z,62.50
2017-12-17T18:31:15.349Z,62.50
2017-12-17T18:33:42.856Z,62.60
2017-12-17T18:36:11.488Z,62.70
2017-12-17T18:38:39.715Z,62.00
2017-12-17T18:41:07.224Z,62.00
2017-12-17T18:43:34.644Z,61.90
2017-12-17T18:46:02.138Z,62.50
2017-12-17T18:48:29.628Z,61.80
2017-12-17T18:50:57.112Z,62.20
2017-12-17T18:53:24.611Z,61.90
2017-12-17T18:55:52.797Z,62.80
2017-12-17T18:58:20.323Z,62.80
2017-12-17T19:00:48.155Z,62.60
2017-12-17T19:03:16.419Z,63.10
2017-12-17T19:05:44.666Z,63.00
2017-12-17T19:08:12.160Z,63.00
2017-12-17T19:10:39.694Z,63.10
2017-12-17T19:13:07.168Z,64.30
2017-12-17T19:15:34.649Z,64.20
2017-12-17T19:18:02.900Z,63.90
2017-12-17T19:20:31.160Z,64.70
2017-12-17T19:22:58.770Z,64.80
2017-12-17T19:25:26.242Z,64.10
2017-12-17T19:27:53.722Z,64.30
2017-12-17T19:30:21.997Z,63.90
2017-12-17T19:32:49.480Z,63.80
2017-12-17T19:35:17.001Z,64.30
2017-12-17T19:37:44.488Z,64.10
2017-12-17T19:40:11.968Z,64.90
2017-12-17T19:42:39.500Z,64.60
2017-12-17T19:45:07.770Z,64.70
2017-12-17T19:47:35.312Z,64.80
2017-12-17T19:50:02.861Z,65.20
2017-12-17T19:52:30.426Z,65.00
2017-12-17T19:54:57.959Z,64.80
2017-12-17T19:57:25.436Z,64.80
2017-12-17T19:59:52.915Z,64.80
2017-12-17T20:02:20.584Z,64.80
2017-12-17T20:04:48.068Z,64.70
2017-12-17T20:07:15.630Z,64.50
2017-12-17T20:09:43.247Z,64.30
2017-12-17T20:12:10.727Z,64.40
2017-12-17T20:14:38.208Z,63.80
2017-12-17T20:17:05.684Z,64.30
2017-12-17T20:19:33.212Z,63.90
2017-12-17T20:22:00.718Z,63.40
2017-12-17T20:24:28.913Z,63.40
2017-12-17T20:26:56.423Z,63.40
2017-12-17T20:29:24.667Z,63.90
2017-12-17T20:31:52.121Z,63.90
2017-12-17T20:34:20.325Z,61.70
2017-12-17T20:36:47.844Z,61.70
2017-12-17T20:39:15.330Z,62.20
2017-12-17T20:41:42.815Z,62.10
2017-12-17T20:44:11.091Z,62.10
2017-12-17T20:46:39.337Z,63.10
2017-12-17T20:49:07.043Z,63.10
2017-12-17T20:51:34.531Z,63.10
2017-12-17T20:54:02.775Z,62.60
2017-12-17T20:56:31.276Z,62.70
2017-12-17T20:58:59.528Z,63.00
2017-12-17T21:01:27.769Z,62.50
2017-12-17T21:03:55.323Z,62.40
2017-12-17T21:06:22.916Z,62.40
2017-12-17T21:08:50.445Z,61.40
2017-12-17T21:11:17.920Z,61.40
2017-12-17T21:13:45.391Z,61.50
2017-12-17T21:16:13.628Z,61.40
2017-12-17T21:18:41.099Z,61.40
2017-12-17T21:21:08.567Z,62.00
2017-12-17T21:23:36.035Z,61.40
2017-12-17T21:26:03.591Z,61.30
2017-12-17T21:28:31.088Z,61.60
2017-12-17T21:30:59.397Z,61.00
2017-12-17T21:33:26.950Z,61.00
2017-12-17T21:35:54.435Z,60.70
2017-12-17T21:38:22.670Z,61.10
2017-12-17T21:40:50.216Z,61.60
2017-12-17T21:43:17.694Z,61.30
2017-12-17T21:45:45.954Z,60.90
2017-12-17T21:48:14.183Z,60.80
2017-12-17T21:50:41.706Z,60.80
2017-12-17T21:53:09.183Z,60.80
2017-12-17T21:55:36.684Z,61.00
2017-12-17T21:58:04.178Z,61.60
2017-12-17T22:00:31.642Z,61.70
2017-12-17T22:02:59.890Z,62.40
2017-12-17T22:05:28.140Z,62.10
2017-12-17T22:07:55.848Z,62.10
2017-12-17T22:10:23.307Z,62.20
2017-12-17T22:12:50.811Z,61.80
2017-12-17T22:15:18.399Z,61.40
2017-12-17T22:17:45.904Z,61.80
2017-12-17T22:20:13.374Z,61.50
2017-12-17T22:22:40.848Z,61.40
2017-12-17T22:25:08.332Z,61.20
2017-12-17T22:27:35.807Z,61.10
2017-12-17T22:30:03.278Z,60.90
2017-12-17T22:32:30.860Z,61.00
2017-12-17T22:34:58.327Z,60.60
2017-12-17T22:37:25.809Z,60.20
2017-12-17T22:39:54.084Z,60.90
2017-12-17T22:42:21.554Z,60.90
2017-12-17T22:44:49.027Z,60.90
2017-12-17T22:47:16.592Z,61.60
2017-12-17T22:49:44.085Z,61.40
2017-12-17T22:52:11.542Z,61.20
2017-12-17T22:54:39.025Z,61.10
2017-12-17T22:57:08.076Z,60.60
2017-12-17T22:59:35.562Z,60.50
2017-12-17T23:02:03.060Z,60.30
2017-12-17T23:04:30.505Z,60.40
2017-12-17T23:06:57.944Z,60.30
2017-12-17T23:09:25.462Z,60.20
2017-12-17T23:11:53.652Z,59.80
2017-12-17T23:14:21.154Z,59.80
2017-12-17T23:16:49.385Z,59.60
2017-12-17T23:19:16.870Z,59.60
2017-12-17T23:21:44.338Z,59.30
2017-12-17T23:24:11.778Z,59.30
2017-12-17T23:26:39.212Z,59.50
2017-12-17T23:29:06.690Z,59.00
2017-12-17T23:31:34.132Z,58.70
2017-12-17T23:34:01.635Z,59.00
2017-12-17T23:36:29.056Z,58.80
2017-12-17T23:38:57.299Z,58.90
2017-12-17T23:41:24.756Z,58.90
2017-12-17T23:43:52.953Z,58.80
2017-12-17T23:46:20.505Z,58.80
2017-12-17T23:48:47.928Z,59.20
2017-12-17T23:51:15.387Z,58.80
2017-12-17T23:53:42.816Z,58.80
2017-12-17T23:56:10.243Z,58.70
2017-12-17T23:58:37.753Z,58.00
